Time;durP1;ratioP1;P1;durP2;ratioP2;P2;SDS_P1;SDS_P2;PMS_P1;PMS_P2;Temp;Humidity;BMP_temperature;BMP_pressure;BME280_temperature;BME280_humidity;BME280_pressure;Samples;Min_cycle;Max_cycle;Signal;HPM_P1;HPM_P2
2022/08/10 00:02:21;;;;;;;2.08;1.50;;;;;;;17.56;85.48;100594.44;1655441;86;21101;-67
2022/08/10 00:04:48;;;;;;;7.10;1.85;;;;;;;17.60;85.13;100589.31;1654337;86;21098;-69
2022/08/10 00:07:14;;;;;;;5.08;1.82;;;;;;;17.64;85.20;100579.32;1653636;85;21094;-68
2022/08/10 00:09:40;;;;;;;2.98;1.60;;;;;;;17.64;84.54;100578.84;1654298;86;21206;-69
2022/08/10 00:12:08;;;;;;;2.45;1.85;;;;;;;17.63;84.48;100583.80;1654119;86;21045;-67
2022/08/10 00:14:34;;;;;;;5.45;2.10;;;;;;;17.62;84.58;100575.41;1655145;85;21158;-68
2022/08/10 00:17:01;;;;;;;3.35;1.70;;;;;;;17.64;84.44;100587.31;1655092;86;21033;-68
2022/08/10 00:19:28;;;;;;;4.97;1.82;;;;;;;17.64;84.29;100584.16;1654737;84;21103;-68
2022/08/10 00:21:54;;;;;;;2.60;1.90;;;;;;;17.63;84.29;100587.80;1654208;86;21132;-67
2022/08/10 00:24:20;;;;;;;2.50;1.77;;;;;;;17.58;84.45;100588.55;1708592;83;21111;-67
2022/08/10 00:26:47;;;;;;;4.62;1.70;;;;;;;17.56;84.85;100583.78;1704111;83;21077;-68
2022/08/10 00:29:13;;;;;;;2.37;1.98;;;;;;;17.53;84.94;100579.95;1708722;83;21163;-68
2022/08/10 00:31:40;;;;;;;5.05;1.80;;;;;;;17.49;85.29;100577.10;1703648;83;21088;-69
2022/08/10 00:34:06;;;;;;;4.95;2.08;;;;;;;17.47;85.60;100582.51;1707796;83;21186;-67
2022/08/10 00:36:33;;;;;;;4.62;1.60;;;;;;;17.42;86.41;100573.09;1706717;83;21164;-67
2022/08/10 00:39:00;;;;;;;3.22;1.67;;;;;;;17.43;87.60;100577.45;1703316;83;21156;-66
2022/08/10 00:41:27;;;;;;;7.70;2.08;;;;;;;17.43;87.20;100582.78;1707185;83;21108;-67
2022/08/10 00:43:53;;;;;;;2.47;2.00;;;;;;;17.40;87.15;100580.67;1707927;83;21113;-67
2022/08/10 00:46:20;;;;;;;3.27;1.37;;;;;;;17.35;87.59;100581.42;1703950;83;21640;-67
2022/08/10 00:48:46;;;;;;;4.90;2.00;;;;;;;17.34;87.76;100582.35;1705708;83;21143;-67
2022/08/10 00:51:12;;;;;;;4.90;1.92;;;;;;;17.33;87.77;100583.80;1703657;83;21088;-67
2022/08/10 00:53:39;;;;;;;2.62;2.02;;;;;;;17.33;88.49;100580.65;1706925;83;20997;-68
2022/08/10 00:56:06;;;;;;;3.05;1.90;;;;;;;17.35;88.23;100578.76;1707960;83;21061;-67
2022/08/10 00:58:34;;;;;;;2.77;1.80;;;;;;;17.35;88.28;100580.09;1679393;85;21099;-67
2022/08/10 01:01:01;;;;;;;7.10;3.05;;;;;;;17.33;88.60;100574.48;1682774;84;21129;-68
2022/08/10 01:03:27;;;;;;;4.95;1.92;;;;;;;17.31;88.87;100576.36;1714577;83;21053;-67
2022/08/10 01:06:17;;;;;;;4.83;1.87;;;;;;;17.27;89.16;100573.02;1686853;84;21066;-68
2022/08/10 01:09:01;;;;;;;3.87;1.80;;;;;;;17.25;89.40;100569.58;1713106;83;21571;-67
2022/08/10 01:11:36;;;;;;;6.33;2.02;;;;;;;17.23;89.77;100566.63;1688167;84;21186;-67
2022/08/10 01:14:20;;;;;;;2.37;1.82;;;;;;;17.20;90.25;100568.99;1711994;83;21109;-67
2022/08/10 01:16:55;;;;;;;2.42;1.90;;;;;;;17.19;90.48;100569.95;1713393;83;21056;-67
2022/08/10 01:19:45;;;;;;;6.97;2.20;;;;;;;17.16;90.91;100574.09;1717066;83;21105;-68
2022/08/10 01:22:51;;;;;;;3.42;1.90;;;;;;;17.16;91.25;100572.77;1708000;83;21131;-68
2022/08/10 01:25:44;;;;;;;4.78;2.00;;;;;;;17.13;92.20;100574.28;1709426;83;21569;-67
2022/08/10 01:28:31;;;;;;;5.78;1.92;;;;;;;17.10;92.55;100570.48;1705464;83;21137;-66
2022/08/10 01:30:59;;;;;;;3.67;2.00;;;;;;;17.10;92.39;100570.48;1711459;83;21545;-67
2022/08/10 01:33:34;;;;;;;3.30;2.10;;;;;;;17.09;92.45;100576.73;1709221;83;21096;-68
2022/08/10 01:36:17;;;;;;;5.87;1.82;;;;;;;17.09;92.39;100574.06;1711922;83;21189;-67
2022/08/10 01:38:47;;;;;;;7.55;2.60;;;;;;;17.08;92.76;100577.69;1682836;84;21259;-68
2022/08/10 01:41:43;;;;;;;2.87;1.90;;;;;;;17.05;93.08;100573.88;1683298;84;21426;-68
2022/08/10 01:44:13;;;;;;;5.17;1.98;;;;;;;17.02;93.15;100573.55;1691282;84;21169;-67
2022/08/10 01:46:45;;;;;;;7.83;2.20;;;;;;;16.97;93.85;100580.95;1685576;84;21614;-67
2022/08/10 01:49:13;;;;;;;2.95;2.00;;;;;;;16.93;94.17;100574.95;1686922;84;21048;-68
2022/08/10 01:51:45;;;;;;;3.50;2.08;;;;;;;16.91;94.85;100570.19;1678952;84;21248;-67
2022/08/10 01:54:13;;;;;;;4.95;2.75;;;;;;;16.87;95.30;100574.44;1711256;83;21072;-69
2022/08/10 01:56:45;;;;;;;2.35;1.92;;;;;;;16.83;95.79;100579.06;1707822;84;21073;-67
2022/08/10 01:59:17;;;;;;;2.95;2.12;;;;;;;16.78;96.56;100577.11;1712349;83;21069;-68
2022/08/10 02:01:56;;;;;;;4.45;2.30;;;;;;;16.76;96.85;100572.34;1689362;84;22108;-67
2022/08/10 02:04:24;;;;;;;5.33;2.20;;;;;;;16.75;97.38;100570.64;1712516;83;21662;-68
2022/08/10 02:06:53;;;;;;;4.53;2.02;;;;;;;16.69;98.15;100564.32;1707955;84;21585;-67
2022/08/10 02:09:26;;;;;;;4.67;1.90;;;;;;;16.67;98.63;100562.22;1713647;83;21104;-67
2022/08/10 02:11:56;;;;;;;5.37;2.20;;;;;;;16.60;99.17;100566.16;1672482;84;21536;-68
2022/08/10 02:14:31;;;;;;;6.50;2.10;;;;;;;16.52;99.92;100564.78;1678340;84;21029;-67
2022/08/10 02:16:59;;;;;;;6.78;2.30;;;;;;;16.52;100.00;100570.10;1667772;83;21193;-67
2022/08/10 02:19:25;;;;;;;6.53;2.20;;;;;;;16.47;100.00;100573.48;1685629;84;21113;-70
2022/08/10 02:21:52;;;;;;;7.25;2.42;;;;;;;16.48;100.00;100577.84;1711134;83;21585;-67
2022/08/10 02:24:19;;;;;;;3.65;2.00;;;;;;;16.50;100.00;100579.95;1713025;83;21587;-68
2022/08/10 02:26:45;;;;;;;3.52;2.22;;;;;;;16.53;100.00;100582.44;1710166;83;21045;-68
2022/08/10 02:29:14;;;;;;;3.67;2.20;;;;;;;16.48;100.00;100585.83;1710307;83;21125;-69
2022/08/10 02:31:42;;;;;;;4.40;2.17;;;;;;;16.45;100.00;100575.81;1709981;83;21089;-67
2022/08/10 02:34:10;;;;;;;3.83;2.47;;;;;;;16.44;100.00;100572.30;1708023;84;21072;-67
2022/08/10 02:36:40;;;;;;;4.87;2.30;;;;;;;16.41;100.00;100568.50;1716627;83;21105;-68
2022/08/10 02:39:08;;;;;;;4.50;2.37;;;;;;;16.36;100.00;100563.91;1709518;82;21096;-68
2022/08/10 02:41:43;;;;;;;9.80;2.65;;;;;;;16.32;100.00;100570.32;1712856;83;21821;-68
2022/08/10 02:44:24;;;;;;;4.33;2.25;;;;;;;16.30;100.00;100572.20;1688377;84;21585;-68
2022/08/10 02:47:04;;;;;;;2.85;2.10;;;;;;;16.29;100.00;100569.17;1714482;83;21064;-67
2022/08/10 02:49:52;;;;;;;5.17;2.87;;;;;;;16.28;100.00;100570.94;1689639;84;21314;-68
2022/08/10 02:52:27;;;;;;;5.75;2.62;;;;;;;16.26;100.00;100573.30;1703795;83;21554;-69
2022/08/10 02:55:06;;;;;;;4.67;2.40;;;;;;;16.23;100.00;100576.13;1707767;83;21189;-67
2022/08/10 02:57:38;;;;;;;3.85;2.20;;;;;;;16.20;100.00;100573.65;1679314;85;21082;-68
2022/08/10 03:00:07;;;;;;;3.10;2.00;;;;;;;16.19;100.00;100574.09;1680595;85;21069;-67
2022/08/10 03:02:41;;;;;;;4.72;2.42;;;;;;;16.19;100.00;100571.91;1708989;83;21085;-69
2022/08/10 03:05:11;;;;;;;5.55;2.10;;;;;;;16.17;100.00;100569.80;1705967;84;21049;-67
2022/08/10 03:07:49;;;;;;;2.52;2.00;;;;;;;16.13;100.00;100583.27;1711100;83;21291;-68
2022/08/10 03:10:25;;;;;;;4.20;2.40;;;;;;;16.12;100.00;100600.13;1689318;84;21093;-68
2022/08/10 03:12:58;;;;;;;5.28;2.65;;;;;;;16.17;100.00;100607.00;1687633;83;21081;-68
2022/08/10 03:15:25;;;;;;;5.30;2.10;;;;;;;16.19;100.00;100593.17;1688145;84;21092;-67
2022/08/10 03:17:55;;;;;;;6.50;2.50;;;;;;;16.18;100.00;100586.16;1674116;85;21061;-67
2022/08/10 03:20:22;;;;;;;3.42;2.12;;;;;;;16.15;100.00;100584.05;1707897;83;21191;-67
2022/08/10 03:22:52;;;;;;;5.83;2.65;;;;;;;16.13;100.00;100586.39;1684048;84;21268;-68
2022/08/10 03:25:25;;;;;;;4.33;2.70;;;;;;;16.13;100.00;100584.59;1682194;83;21029;-68
2022/08/10 03:27:53;;;;;;;4.72;2.72;;;;;;;16.13;100.00;100587.25;1686041;84;21095;-67
2022/08/10 03:30:20;;;;;;;5.75;2.37;;;;;;;16.16;100.00;100588.88;1684882;83;21700;-68
2022/08/10 03:32:46;;;;;;;4.97;2.45;;;;;;;16.18;100.00;100588.34;1685568;84;21335;-68
2022/08/10 03:35:13;;;;;;;4.10;2.27;;;;;;;16.18;100.00;100584.34;1686207;84;21064;-69
2022/08/10 03:37:39;;;;;;;4.42;2.70;;;;;;;16.19;100.00;100582.06;1708663;82;21526;-68
2022/08/10 03:40:10;;;;;;;10.98;2.80;;;;;;;16.23;100.00;100586.77;1671959;84;21215;-69
2022/08/10 03:42:38;;;;;;;7.45;2.50;;;;;;;16.27;100.00;100589.65;1683304;84;21112;-68
2022/08/10 03:45:06;;;;;;;4.35;2.80;;;;;;;16.31;100.00;100584.53;1677776;84;21188;-68
2022/08/10 03:47:35;;;;;;;8.10;2.50;;;;;;;16.34;100.00;100581.73;1703753;83;21127;-67
2022/08/10 03:50:01;;;;;;;4.97;2.42;;;;;;;16.40;100.00;100585.37;1684773;84;21081;-68
2022/08/10 03:52:28;;;;;;;4.28;2.60;;;;;;;16.45;100.00;100591.31;1686182;84;21089;-67
2022/08/10 03:54:54;;;;;;;9.25;2.58;;;;;;;16.50;100.00;100598.56;1684221;84;21046;-68
2022/08/10 03:57:21;;;;;;;8.70;2.55;;;;;;;16.68;100.00;100607.80;1679553;85;21107;-69
2022/08/10 03:59:49;;;;;;;6.55;2.27;;;;;;;16.84;100.00;100612.72;1680428;85;21007;-68
2022/08/10 04:02:16;;;;;;;3.65;2.33;;;;;;;16.93;100.00;100609.55;1680439;84;21133;-68
2022/08/10 04:04:42;;;;;;;3.70;2.10;;;;;;;16.99;100.00;100609.17;1680151;84;21026;-68
2022/08/10 04:07:09;;;;;;;7.12;2.30;;;;;;;17.01;100.00;100601.60;1680445;85;21283;-68
2022/08/10 04:09:38;;;;;;;4.28;2.22;;;;;;;16.98;100.00;100602.63;1628616;85;21295;-67
2022/08/10 04:12:05;;;;;;;4.87;2.60;;;;;;;16.98;100.00;100602.63;1680177;85;21056;-68
2022/08/10 04:14:31;;;;;;;3.22;2.50;;;;;;;17.02;100.00;100605.97;1680203;85;21365;-68
2022/08/10 04:16:58;;;;;;;7.87;2.60;;;;;;;17.01;100.00;100602.93;1680231;85;21065;-69
2022/08/10 04:19:24;;;;;;;8.23;2.58;;;;;;;17.01;100.00;100600.27;1680042;85;21074;-67
2022/08/10 04:22:04;;;;;;;4.70;2.33;;;;;;;17.06;100.00;100606.19;1680173;85;21203;-69
2022/08/10 04:24:32;;;;;;;2.25;1.90;;;;;;;17.12;100.00;100595.20;1679947;84;21098;-69
2022/08/10 04:27:00;;;;;;;6.00;2.47;;;;;;;17.17;100.00;100593.13;1680265;84;21546;-68
2022/08/10 04:29:27;;;;;;;3.58;1.90;;;;;;;17.22;100.00;100592.39;1680316;84;21122;-69
2022/08/10 04:31:55;;;;;;;3.25;2.30;;;;;;;17.26;100.00;100584.62;1680129;83;21098;-68
2022/08/10 04:34:21;;;;;;;8.73;2.12;;;;;;;17.31;100.00;100578.55;1680423;85;21168;-69
2022/08/10 04:36:48;;;;;;;5.22;2.20;;;;;;;17.43;100.00;100570.80;1679946;85;21062;-69
2022/08/10 04:39:15;;;;;;;4.10;2.10;;;;;;;17.67;100.00;100571.14;1680132;85;21074;-67
2022/08/10 04:41:42;;;;;;;4.58;2.20;;;;;;;17.96;100.00;100575.61;1680052;85;21078;-68
2022/08/10 04:44:08;;;;;;;3.87;1.80;;;;;;;18.73;97.82;100576.66;1680372;84;21070;-69
2022/08/10 04:46:35;;;;;;;3.83;2.10;;;;;;;19.54;92.01;100579.84;1680508;85;21793;-67
2022/08/10 04:49:01;;;;;;;2.30;1.92;;;;;;;20.02;86.19;100586.84;1680510;85;21522;-69
2022/08/10 04:51:28;;;;;;;4.25;2.30;;;;;;;20.13;84.26;100594.98;1680067;85;21098;-68
2022/08/10 04:53:55;;;;;;;3.58;2.30;;;;;;;20.07;82.91;100598.91;1683867;85;21546;-69
2022/08/10 04:56:21;;;;;;;5.53;1.92;;;;;;;20.03;83.03;100597.90;1665060;84;21034;-68
2022/08/10 04:58:47;;;;;;;2.72;1.80;;;;;;;20.03;82.52;100601.91;1678807;85;21205;-67
2022/08/10 05:01:14;;;;;;;3.70;2.02;;;;;;;20.05;82.09;100599.98;1669491;85;21136;-68
2022/08/10 05:03:40;;;;;;;6.58;2.02;;;;;;;20.25;81.32;100596.78;1677927;84;21060;-68
2022/08/10 05:06:07;;;;;;;3.10;1.92;;;;;;;20.36;79.94;100600.50;1681926;84;21554;-66
2022/08/10 05:10:26;;;;;;;5.45;2.00;;;;;;;20.64;79.33;100593.62;1808992;78;22712;-69
2022/08/10 05:12:52;;;;;;;4.50;1.98;;;;;;;20.83;76.37;100593.63;1789212;80;21513;-69
2022/08/10 05:15:23;;;;;;;5.47;1.90;;;;;;;20.88;75.81;100591.46;1784431;80;21629;-68
2022/08/10 05:17:49;;;;;;;5.25;2.22;;;;;;;20.92;75.68;100599.16;1770877;79;21159;-69
2022/08/10 05:20:16;;;;;;;3.30;1.90;;;;;;;20.97;75.88;100597.97;1775049;80;21080;-68
2022/08/10 05:22:43;;;;;;;1.77;1.47;;;;;;;20.96;75.57;100597.13;1780543;79;21104;-68
2022/08/10 05:25:15;;;;;;;3.25;1.70;;;;;;;20.90;75.87;100594.89;1781685;80;21333;-68
2022/08/10 05:27:43;;;;;;;4.33;1.95;;;;;;;20.86;76.00;100590.72;1776930;79;21110;-68
2022/08/10 05:30:14;;;;;;;3.75;2.22;;;;;;;20.80;76.55;100592.48;1771253;79;21651;-67
2022/08/10 05:32:40;;;;;;;;;;;;;;;20.71;77.07;100585.52;1771424;79;21379;-69
2022/08/10 05:35:07;;;;;;;4.67;2.10;;;;;;;20.63;77.14;100589.21;1789031;79;20186;-68
2022/08/10 05:37:34;;;;;;;3.22;2.10;;;;;;;20.55;77.74;100590.23;1790043;80;21628;-69
2022/08/10 05:40:03;;;;;;;3.47;2.10;;;;;;;20.45;77.86;100598.06;1780883;79;22232;-69
2022/08/10 05:42:30;;;;;;;3.08;2.20;;;;;;;20.36;78.43;100592.48;1775030;79;21049;-67
2022/08/10 05:44:57;;;;;;;2.77;1.95;;;;;;;20.24;79.17;100588.37;1791846;80;21008;-68
2022/08/10 05:47:23;;;;;;;5.67;2.20;;;;;;;20.18;79.72;100583.96;1791866;80;21173;-69
2022/08/10 05:49:51;;;;;;;8.75;2.17;;;;;;;20.14;79.97;100580.63;1790341;80;21092;-69
2022/08/10 05:52:18;;;;;;;2.55;1.90;;;;;;;20.03;80.76;100583.19;1771374;79;21139;-69
2022/08/10 05:54:45;;;;;;;3.42;2.02;;;;;;;19.98;81.18;100588.01;1759621;81;21576;-69
2022/08/10 05:57:11;;;;;;;3.17;1.70;;;;;;;19.93;82.27;100600.36;1759143;81;21579;-68
2022/08/10 05:59:43;;;;;;;3.60;2.02;;;;;;;19.89;82.64;100605.05;1728341;82;21667;-68
2022/08/10 06:02:09;;;;;;;6.12;2.10;;;;;;;19.85;83.51;100604.90;1697877;83;21159;-69
2022/08/10 06:04:39;;;;;;;5.58;2.00;;;;;;;19.81;84.20;100599.87;1700783;84;21159;-68
2022/08/10 06:07:06;;;;;;;6.17;2.27;;;;;;;19.80;84.41;100591.45;1702254;83;21486;-68
2022/08/10 06:09:34;;;;;;;4.28;1.95;;;;;;;19.77;84.51;100589.86;1702246;83;21080;-69
2022/08/10 06:12:02;;;;;;;4.92;1.90;;;;;;;19.79;84.85;100599.96;1701194;83;21017;-68
2022/08/10 06:17:13;;;;;;;11.15;2.67;;;;;;;19.78;85.34;100614.75;1696645;83;21247;-70
2022/08/10 06:19:40;;;;;;;3.70;2.05;;;;;;;19.82;85.85;100610.43;1678777;83;21362;-69
2022/08/10 06:22:07;;;;;;;8.25;2.22;;;;;;;19.81;86.04;100611.41;1698866;83;21581;-70
2022/08/10 06:24:36;;;;;;;7.45;2.45;;;;;;;19.82;86.29;100613.59;1709366;83;21120;-68
2022/08/10 06:27:03;;;;;;;2.67;2.08;;;;;;;19.84;86.62;100607.18;1709463;83;21098;-68
2022/08/10 06:29:31;;;;;;;2.83;2.52;;;;;;;19.87;86.61;100604.77;1709023;83;21117;-69
2022/08/10 06:31:58;;;;;;;4.80;1.92;;;;;;;19.88;86.85;100599.33;1709573;83;21095;-69
2022/08/10 06:34:29;;;;;;;8.50;2.33;;;;;;;19.90;86.54;100597.41;1709846;83;21190;-68
2022/08/10 06:36:58;;;;;;;7.55;2.75;;;;;;;20.01;86.54;100599.81;1709715;83;21575;-69
2022/08/10 06:39:26;;;;;;;2.05;1.82;;;;;;;20.12;85.78;100602.61;1709268;83;21623;-67
2022/08/10 06:41:57;;;;;;;4.72;2.17;;;;;;;20.20;84.96;100596.26;1709448;83;21825;-69
2022/08/10 06:44:28;;;;;;;3.90;1.90;;;;;;;20.33;84.04;100594.89;1729488;82;21626;-68
2022/08/10 06:46:55;;;;;;;4.03;2.00;;;;;;;20.48;83.88;100596.98;1725264;82;21620;-70
2022/08/10 06:49:22;;;;;;;5.12;2.37;;;;;;;20.65;83.13;100608.69;1707624;83;21037;-69
2022/08/10 06:51:53;;;;;;;5.25;2.30;;;;;;;20.81;82.63;100606.27;1726561;83;21056;-70
2022/08/10 06:54:24;;;;;;;4.92;2.10;;;;;;;20.99;81.93;100615.63;1699825;83;21396;-68
2022/08/10 06:56:53;;;;;;;7.28;2.33;;;;;;;21.18;80.65;100607.59;1713289;83;21078;-69
2022/08/10 06:59:43;;;;;;;3.05;2.05;;;;;;;21.33;79.66;100606.46;1713509;83;21112;-69
2022/08/10 07:02:14;;;;;;;4.28;2.12;;;;;;;21.48;79.20;100602.64;1691966;83;21442;-69
2022/08/10 07:04:51;;;;;;;4.53;2.17;;;;;;;21.65;76.46;100604.53;1705454;83;21095;-68
2022/08/10 07:07:21;;;;;;;5.15;2.02;;;;;;;21.65;76.50;100606.75;1702762;83;21176;-69
2022/08/10 07:09:47;;;;;;;3.10;2.12;;;;;;;21.72;76.73;100609.82;1717068;83;21238;-69
2022/08/10 07:12:14;;;;;;;3.33;1.98;;;;;;;21.82;75.86;100606.79;1706061;83;21533;-68
2022/08/10 07:14:43;;;;;;;4.25;2.20;;;;;;;21.88;75.91;100605.45;1715942;83;21154;-68
2022/08/10 07:17:13;;;;;;;3.22;1.90;;;;;;;21.94;75.26;100607.17;1711489;83;21178;-70
2022/08/10 07:19:41;;;;;;;7.50;1.90;;;;;;;22.04;75.15;100610.48;1709301;83;21767;-69
2022/08/10 07:22:09;;;;;;;3.02;2.30;;;;;;;22.12;74.52;100614.29;1714566;83;21086;-70
2022/08/10 07:24:35;;;;;;;5.15;2.20;;;;;;;22.13;73.50;100613.33;1725111;81;21032;-70
2022/08/10 07:27:02;;;;;;;5.58;2.33;;;;;;;22.17;73.66;100617.46;1727469;81;21071;-69
2022/08/10 07:29:30;;;;;;;4.40;2.00;;;;;;;22.21;73.86;100616.78;1738760;81;21571;-70
2022/08/10 07:31:58;;;;;;;5.28;2.37;;;;;;;22.26;73.99;100613.25;1750523;81;21219;-69
2022/08/10 07:34:26;;;;;;;7.30;2.47;;;;;;;22.30;73.83;100618.75;1747942;81;21092;-68
2022/08/10 07:36:52;;;;;;;4.03;2.80;;;;;;;22.31;73.44;100620.44;1691415;83;21096;-70
2022/08/10 07:39:19;;;;;;;4.95;2.58;;;;;;;22.33;72.93;100615.81;1732005;81;21597;-69
2022/08/10 07:41:47;;;;;;;7.08;2.50;;;;;;;22.34;72.83;100612.17;1740381;81;21037;-69
2022/08/10 07:44:13;;;;;;;8.25;3.10;;;;;;;22.33;73.12;100606.41;1711992;83;21924;-68
2022/08/10 07:46:46;;;;;;;10.00;2.80;;;;;;;22.38;72.81;100606.94;1746113;81;21116;-69
2022/08/10 07:49:19;;;;;;;4.35;2.72;;;;;;;22.38;73.04;100605.59;1679183;82;21075;-68
2022/08/10 07:51:49;;;;;;;5.58;2.77;;;;;;;22.45;73.08;100604.59;1703894;81;21058;-70
2022/08/10 07:54:16;;;;;;;4.70;2.80;;;;;;;22.52;73.38;100598.25;1710737;82;21060;-68
2022/08/10 07:56:43;;;;;;;4.55;3.25;;;;;;;22.63;72.93;100595.56;1654936;84;21114;-69
2022/08/10 07:59:13;;;;;;;7.05;3.40;;;;;;;22.66;72.68;100594.00;1702144;83;21528;-69
2022/08/10 08:01:47;;;;;;;8.18;3.27;;;;;;;22.74;72.81;100596.05;1696302;84;21096;-70
2022/08/10 08:04:13;;;;;;;6.25;3.17;;;;;;;22.76;72.22;100589.58;1693633;83;21108;-70
2022/08/10 08:06:41;;;;;;;6.58;3.30;;;;;;;22.79;72.88;100586.63;1707884;83;21103;-69
2022/08/10 08:09:09;;;;;;;6.50;3.50;;;;;;;22.83;72.17;100588.09;1720993;83;21262;-69
2022/08/10 08:11:40;;;;;;;5.83;3.22;;;;;;;22.86;71.95;100587.48;1720842;83;21093;-68
2022/08/10 08:14:07;;;;;;;5.33;3.00;;;;;;;22.85;72.00;100589.33;1720469;83;21041;-70
2022/08/10 08:16:36;;;;;;;10.63;3.70;;;;;;;22.87;72.50;100591.41;1706550;83;21116;-68
2022/08/10 08:19:03;;;;;;;9.33;3.20;;;;;;;22.86;72.16;100602.26;1710159;82;21165;-71
2022/08/10 08:21:29;;;;;;;5.10;3.40;;;;;;;22.81;72.06;100598.11;1695748;84;21255;-68
2022/08/10 08:23:56;;;;;;;8.88;3.92;;;;;;;22.80;72.45;100600.94;1687796;84;22264;-69
2022/08/10 08:26:22;;;;;;;8.20;3.55;;;;;;;22.75;72.86;100599.97;1689604;84;21138;-68
2022/08/10 08:28:50;;;;;;;7.03;3.22;;;;;;;22.75;73.13;100599.97;1703917;83;21120;-69
2022/08/10 08:31:17;;;;;;;4.40;3.25;;;;;;;22.73;73.29;100601.92;1676763;84;21151;-70
2022/08/10 08:33:44;;;;;;;14.73;3.70;;;;;;;22.69;73.03;100600.95;1687198;84;22064;-68
2022/08/10 08:36:17;;;;;;;7.87;3.65;;;;;;;22.64;73.73;100599.97;1699397;83;21655;-68
2022/08/10 08:38:45;;;;;;;6.50;3.52;;;;;;;22.63;73.59;100600.94;1693934;84;22092;-69
2022/08/10 08:41:33;;;;;;;4.15;3.15;;;;;;;22.56;74.22;100601.06;1668630;84;21591;-69
2022/08/10 08:44:17;;;;;;;6.45;3.35;;;;;;;22.54;74.13;100601.17;1727010;82;21060;-68
2022/08/10 08:46:52;;;;;;;7.25;3.37;;;;;;;22.62;74.37;100601.92;1707969;83;22009;-68
2022/08/10 08:50:04;;;;;;;4.97;3.60;;;;;;;22.67;74.74;100599.72;1668625;84;21151;-69
2022/08/10 08:52:38;;;;;;;6.47;4.08;;;;;;;22.71;74.39;100599.84;1700413;82;21222;-69
2022/08/10 08:55:35;;;;;;;5.50;3.55;;;;;;;22.77;74.17;100599.33;1668928;84;21151;-67
2022/08/10 08:58:48;;;;;;;8.75;3.70;;;;;;;22.87;73.71;100591.41;1692568;84;21082;-69
2022/08/10 09:01:43;;;;;;;8.33;3.87;;;;;;;23.03;73.21;100590.54;1685622;84;21225;-68
2022/08/10 09:04:49;;;;;;;4.37;3.47;;;;;;;23.23;72.36;100583.50;1656804;84;21158;-69
2022/08/10 09:07:48;;;;;;;6.90;3.98;;;;;;;23.37;70.55;100587.73;1691974;84;21027;-70
2022/08/10 09:10:46;;;;;;;5.55;3.60;;;;;;;23.48;70.85;100597.59;1662430;84;21134;-68
2022/08/10 09:13:38;;;;;;;6.70;3.92;;;;;;;23.70;70.26;100594.45;1677072;84;21590;-70
2022/08/10 09:16:16;;;;;;;4.60;3.65;;;;;;;23.91;69.16;100595.33;1695065;84;21158;-69
2022/08/10 09:18:48;;;;;;;5.60;3.50;;;;;;;24.14;68.79;100595.19;1680271;84;21146;-68
2022/08/10 09:21:46;;;;;;;4.42;3.62;;;;;;;24.38;66.64;100595.72;1669562;84;21066;-69
2022/08/10 09:24:21;;;;;;;4.55;3.67;;;;;;;24.54;65.70;100597.10;1678627;84;21090;-71
2022/08/10 09:26:52;;;;;;;7.87;3.50;;;;;;;24.74;64.87;100587.27;1685761;84;21185;-69
2022/08/10 09:29:25;;;;;;;;;;;;;;;25.02;64.30;100592.36;1695858;84;21129;-70
2022/08/10 09:32:02;;;;;;;7.92;3.87;;;;;;;25.16;63.43;100594.64;1723929;83;20500;-70
2022/08/10 09:34:55;;;;;;;5.08;3.72;;;;;;;25.13;61.91;100589.54;1717288;83;21060;-69
2022/08/10 09:37:42;;;;;;;7.87;3.92;;;;;;;25.02;61.34;100582.92;1721325;83;21053;-70
2022/08/10 09:40:21;;;;;;;43.83;8.23;;;;;;;24.81;62.97;100577.64;1705888;83;21132;-68
2022/08/10 09:43:05;;;;;;;8.08;3.70;;;;;;;24.83;63.64;100581.05;1655194;83;21553;-69
2022/08/10 09:46:12;;;;;;;6.05;3.80;;;;;;;25.00;63.09;100584.91;1709282;83;21112;-69
2022/08/10 09:49:12;;;;;;;4.60;3.35;;;;;;;25.10;61.99;100580.40;1717744;83;21652;-69
2022/08/10 09:52:03;;;;;;;5.42;3.90;;;;;;;25.10;61.78;100577.70;1717244;83;25326;-70
2022/08/10 09:54:41;;;;;;;9.25;3.80;;;;;;;25.04;61.99;100574.21;1707023;83;21051;-68
2022/08/10 09:57:25;;;;;;;4.65;3.85;;;;;;;24.85;62.72;100570.49;1708568;83;21068;-68
2022/08/10 10:00:10;;;;;;;5.40;3.70;;;;;;;24.76;63.59;100576.70;1708820;83;21022;-69
2022/08/10 10:02:47;;;;;;;7.25;3.65;;;;;;;24.66;63.34;100569.95;1704231;83;21120;-68
2022/08/10 10:05:25;;;;;;;5.05;3.90;;;;;;;24.66;64.16;100577.16;1692309;83;21050;-68
2022/08/10 10:08:06;;;;;;;5.92;3.65;;;;;;;24.67;63.20;100578.88;1675492;83;21672;-70
2022/08/10 10:10:42;;;;;;;4.33;3.92;;;;;;;24.57;63.20;100572.59;1704622;83;21263;-69
2022/08/10 10:13:13;;;;;;;5.97;3.58;;;;;;;24.57;62.94;100576.63;1693409;83;21062;-70
2022/08/10 10:15:45;;;;;;;4.12;3.62;;;;;;;24.47;63.61;100567.17;1694186;83;21058;-69
2022/08/10 10:18:46;;;;;;;4.72;3.83;;;;;;;24.36;64.00;100564.55;1697778;83;21840;-69
2022/08/10 10:21:39;;;;;;;5.47;3.45;;;;;;;24.32;64.00;100569.83;1698901;83;21070;-69
2022/08/10 10:24:14;;;;;;;9.43;3.67;;;;;;;24.20;65.34;100570.42;1697800;83;21205;-69
2022/08/10 10:27:02;;;;;;;7.42;3.62;;;;;;;24.10;66.00;100570.88;1690857;83;21041;-70
2022/08/10 10:29:50;;;;;;;5.25;3.85;;;;;;;24.15;66.24;100568.63;1694585;83;21069;-69
2022/08/10 10:32:55;;;;;;;5.67;3.75;;;;;;;24.14;65.60;100570.97;1694024;83;21084;-70
2022/08/10 10:35:51;;;;;;;5.53;4.00;;;;;;;24.05;66.05;100561.36;1681318;83;21574;-70
2022/08/10 10:38:20;;;;;;;5.75;3.98;;;;;;;24.05;66.67;100569.93;1707784;83;21312;-69
2022/08/10 10:41:00;;;;;;;9.03;3.67;;;;;;;24.11;66.92;100565.84;1692541;83;21653;-69
2022/08/10 10:43:41;;;;;;;5.85;3.98;;;;;;;24.15;67.02;100565.94;1708584;83;21107;-70
2022/08/10 10:46:34;;;;;;;5.15;3.22;;;;;;;24.19;65.61;100557.97;1703313;83;21100;-70
2022/08/10 10:49:18;;;;;;;4.70;3.37;;;;;;;24.17;65.43;100554.55;1699081;83;21076;-70
2022/08/10 10:52:19;;;;;;;7.10;3.47;;;;;;;24.22;64.92;100553.15;1694739;83;21254;-70
2022/08/10 10:55:29;;;;;;;7.33;3.37;;;;;;;24.28;64.76;100555.31;1711409;83;21063;-69
2022/08/10 10:58:24;;;;;;;5.53;3.33;;;;;;;24.37;63.44;100560.38;1721563;83;21558;-70
2022/08/10 11:01:42;;;;;;;3.70;3.10;;;;;;;24.45;63.80;100555.66;1721635;83;21074;-68
2022/08/10 11:04:57;;;;;;;6.22;2.87;;;;;;;24.60;62.85;100561.56;1719595;83;21045;-69
2022/08/10 11:07:35;;;;;;;4.33;2.33;;;;;;;24.81;61.70;100559.63;1721431;83;21298;-69
2022/08/10 11:10:06;;;;;;;4.85;2.83;;;;;;;25.00;59.71;100557.96;1722034;83;21767;-70
2022/08/10 11:12:45;;;;;;;;;;;;;;;25.14;59.00;100544.06;1717416;83;21064;-70
2022/08/10 11:15:28;;;;;;;6.20;2.80;;;;;;;25.32;58.27;100543.75;1722363;83;20614;-70
2022/08/10 11:18:25;;;;;;;3.45;2.83;;;;;;;25.46;56.02;100524.94;1714195;83;21084;-69
2022/08/10 11:21:16;;;;;;;7.85;3.02;;;;;;;25.53;56.23;100522.52;1721392;83;22037;-70
2022/08/10 11:24:06;;;;;;;5.25;2.70;;;;;;;25.50;56.78;100525.52;1714185;83;21076;-69
2022/08/10 11:27:03;;;;;;;3.40;2.70;;;;;;;25.55;56.98;100528.63;1699346;83;21120;-70
2022/08/10 11:30:01;;;;;;;4.45;2.45;;;;;;;25.54;56.60;100540.42;1670421;83;21112;-69
2022/08/10 11:32:56;;;;;;;7.17;2.75;;;;;;;25.49;57.49;100539.98;1699452;83;21155;-69
2022/08/10 11:35:37;;;;;;;5.42;2.60;;;;;;;25.62;57.45;100539.19;1710372;83;21144;-70
2022/08/10 11:38:31;;;;;;;6.85;2.40;;;;;;;25.51;56.49;100527.20;1706155;83;21077;-68
2022/08/10 11:41:19;;;;;;;5.20;2.65;;;;;;;25.37;56.74;100537.94;1710902;83;21038;-71
2022/08/10 11:44:00;;;;;;;6.15;2.62;;;;;;;25.31;57.55;100538.02;1700826;83;21036;-71
2022/08/10 11:46:40;;;;;;;3.20;2.35;;;;;;;25.27;57.39;100529.86;1698526;83;20997;-72
2022/08/10 11:49:16;;;;;;;;;;;;;;;25.19;57.41;100525.69;1703464;83;21241;-70
2022/08/10 11:51:47;;;;;;;5.65;2.30;;;;;;;25.18;57.63;100523.09;1702375;83;20221;-69
2022/08/10 11:54:31;;;;;;;3.27;2.10;;;;;;;25.17;56.71;100520.91;1692823;83;21133;-69
2022/08/10 11:56:59;;;;;;;5.58;2.60;;;;;;;25.10;58.18;100526.50;1673100;84;21071;-70
2022/08/10 12:02:17;;;;;;;7.35;2.72;;;;;;;24.85;59.15;100536.82;1685879;83;21132;-74
2022/08/10 12:04:48;;;;;;;6.87;2.60;;;;;;;24.74;59.08;100534.24;1684853;84;21108;-70